createdAt,value
2022-11-19T00:01:14.854Z,15.27
2022-11-19T00:03:20.093Z,14.48
2022-11-19T00:05:21.863Z,16.20
2022-11-19T00:07:24.061Z,15.40
2022-11-19T00:09:26.211Z,16.20
2022-11-19T00:11:47.123Z,19.15
2022-11-19T00:13:50.172Z,15.98
2022-11-19T00:15:52.536Z,15.50
2022-11-19T00:17:54.371Z,10.80
2022-11-19T00:19:56.525Z,15.85
2022-11-19T00:21:58.473Z,15.23
2022-11-19T00:24:00.352Z,15.77
2022-11-19T00:26:13.780Z,14.23
2022-11-19T00:28:15.545Z,13.45
2022-11-19T00:30:40.806Z,17.60
2022-11-19T00:32:40.211Z,15.73
2022-11-19T00:34:42.278Z,14.00
2022-11-19T00:36:44.118Z,15.60
2022-11-19T00:38:46.412Z,15.55
2022-11-19T00:40:48.390Z,16.10
2022-11-19T00:43:08.855Z,15.00
2022-11-19T00:45:11.023Z,15.23
2022-11-19T00:47:12.823Z,14.32
2022-11-19T00:49:14.569Z,15.23
2022-11-19T00:51:18.172Z,15.23
2022-11-19T00:53:19.958Z,16.02
2022-11-19T00:55:21.747Z,14.98
2022-11-19T00:57:23.883Z,15.30
2022-11-19T00:59:25.944Z,15.10
2022-11-19T01:01:27.848Z,15.60
2022-11-19T01:03:30.190Z,15.70
2022-11-19T01:05:32.172Z,15.53
2022-11-19T01:07:34.053Z,15.68
2022-11-19T01:09:36.224Z,15.88
2022-11-19T01:11:39.553Z,16.10
2022-11-19T01:13:41.799Z,14.43
2022-11-19T01:15:47.131Z,15.90
2022-11-19T01:17:49.019Z,15.10
2022-11-19T01:19:50.787Z,13.95
2022-11-19T01:21:52.991Z,14.32
2022-11-19T01:23:55.123Z,15.40
2022-11-19T01:25:57.028Z,16.02
2022-11-19T01:27:59.235Z,14.93
2022-11-19T01:30:00.996Z,14.90
2022-11-19T01:32:02.780Z,14.43
2022-11-19T01:34:05.110Z,15.45
2022-11-19T01:36:11.400Z,15.13
2022-11-19T01:38:13.166Z,14.18
2022-11-19T01:40:15.890Z,15.00
2022-11-19T01:42:49.741Z,12.00
2022-11-19T01:45:04.073Z,19.77
2022-11-19T01:47:05.858Z,17.17
2022-11-19T01:49:14.811Z,16.38
2022-11-19T01:51:30.199Z,16.25
2022-11-19T01:53:35.358Z,15.00
2022-11-19T01:55:38.510Z,15.95
2022-11-19T01:57:41.121Z,15.35
2022-11-19T01:59:46.694Z,15.00
2022-11-19T02:01:48.872Z,14.73
2022-11-19T02:03:52.440Z,15.55
2022-11-19T02:05:54.604Z,15.20
2022-11-19T02:07:58.338Z,14.35
2022-11-19T02:10:02.964Z,14.77
2022-11-19T02:12:19.067Z,14.43
2022-11-19T02:14:47.300Z,13.60
2022-11-19T02:17:23.387Z,15.77
2022-11-19T02:19:45.146Z,14.50
2022-11-19T02:22:29.754Z,14.35
2022-11-19T02:25:01.347Z,14.15
2022-11-19T02:27:32.680Z,14.27
2022-11-19T02:30:02.404Z,14.63
2022-11-19T02:32:15.091Z,14.75
2022-11-19T02:34:22.530Z,14.90
2022-11-19T02:36:32.439Z,14.65
2022-11-19T02:38:41.768Z,14.65
2022-11-19T02:41:29.453Z,14.48
2022-11-19T02:43:41.758Z,14.90
2022-11-19T02:45:49.274Z,15.50
2022-11-19T02:47:55.115Z,15.50
2022-11-19T02:50:03.183Z,14.40
2022-11-19T02:52:05.559Z,14.63
2022-11-19T02:54:08.465Z,14.55
2022-11-19T02:56:17.902Z,14.65
2022-11-19T02:58:40.655Z,13.35
2022-11-19T03:01:08.492Z,12.88
2022-11-19T03:03:39.557Z,14.18
2022-11-19T03:05:47.251Z,12.85
2022-11-19T03:07:49.205Z,11.80
2022-11-19T03:10:00.530Z,13.20
2022-11-19T03:12:20.980Z,13.35
2022-11-19T03:14:48.582Z,12.90
2022-11-19T03:17:08.256Z,13.98
2022-11-19T03:19:27.758Z,13.60
2022-11-19T03:21:38.015Z,14.75
2022-11-19T03:24:02.752Z,14.82
2022-11-19T03:26:13.399Z,13.85
2022-11-19T03:28:21.602Z,15.27
2022-11-19T03:30:23.684Z,14.48
2022-11-19T03:32:30.994Z,14.35
2022-11-19T03:34:36.415Z,13.77
2022-11-19T03:36:41.055Z,14.98
2022-11-19T03:38:47.082Z,14.95
2022-11-19T03:40:50.659Z,15.57
2022-11-19T03:42:54.758Z,16.80
2022-11-19T03:45:10.313Z,16.05
2022-11-19T03:47:17.194Z,16.13
2022-11-19T03:49:22.629Z,15.52
2022-11-19T03:51:48.661Z,17.63
2022-11-19T03:53:50.825Z,15.90
2022-11-19T03:56:19.797Z,17.05
2022-11-19T03:58:25.073Z,17.00
2022-11-19T04:00:26.817Z,15.65
2022-11-19T04:02:28.666Z,17.25
2022-11-19T04:04:37.412Z,17.80
2022-11-19T04:06:39.175Z,18.20
2022-11-19T04:08:40.912Z,18.25
2022-11-19T04:10:43.054Z,18.42
2022-11-19T04:12:44.829Z,17.92
2022-11-19T04:14:47.437Z,18.35
2022-11-19T04:16:49.843Z,19.05
2022-11-19T04:18:51.582Z,17.67
2022-11-19T04:20:53.413Z,18.02
2022-11-19T04:22:55.740Z,17.83
2022-11-19T04:24:57.571Z,17.80
2022-11-19T04:26:59.349Z,16.42
2022-11-19T04:29:01.582Z,19.15
2022-11-19T04:31:03.434Z,17.33
2022-11-19T04:33:05.187Z,18.77
2022-11-19T04:35:08.103Z,18.02
2022-11-19T04:37:09.913Z,18.38
2022-11-19T04:39:12.547Z,18.95
2022-11-19T04:41:14.854Z,19.23
2022-11-19T04:43:16.633Z,18.30
2022-11-19T04:45:18.413Z,18.30
2022-11-19T04:47:20.574Z,19.83
2022-11-19T04:49:22.681Z,18.13
2022-11-19T04:51:24.507Z,19.90
2022-11-19T04:53:26.858Z,18.52
2022-11-19T04:55:28.862Z,19.00
2022-11-19T04:57:30.692Z,19.07
2022-11-19T04:59:32.836Z,18.92
2022-11-19T05:01:34.716Z,18.80
2022-11-19T05:03:36.486Z,19.43
2022-11-19T05:05:38.593Z,19.35
2022-11-19T05:07:40.466Z,18.23
2022-11-19T05:09:42.251Z,18.55
2022-11-19T05:11:44.346Z,19.00
2022-11-19T05:13:46.182Z,18.98
2022-11-19T05:15:48.012Z,18.98
2022-11-19T05:17:50.464Z,19.58
2022-11-19T05:19:52.233Z,19.42
2022-11-19T05:21:54.009Z,18.17
2022-11-19T05:23:56.138Z,19.30
2022-11-19T05:25:58.110Z,18.52
2022-11-19T05:27:59.875Z,19.13
2022-11-19T05:30:02.186Z,20.15
2022-11-19T05:32:04.180Z,18.97
2022-11-19T05:34:06.027Z,20.03
2022-11-19T05:36:08.358Z,20.58
2022-11-19T05:38:10.148Z,19.30
2022-11-19T05:40:12.522Z,20.73
2022-11-19T05:42:14.658Z,19.83
2022-11-19T05:44:17.028Z,21.52
2022-11-19T05:46:19.131Z,21.65
2022-11-19T05:48:20.911Z,23.35
2022-11-19T05:50:22.842Z,22.67
2022-11-19T05:52:25.383Z,22.95
2022-11-19T05:54:27.447Z,21.52
2022-11-19T05:56:29.341Z,23.70
2022-11-19T05:58:31.445Z,24.35
2022-11-19T06:00:33.412Z,22.95
2022-11-19T06:02:35.226Z,24.30
2022-11-19T06:04:37.471Z,24.77
2022-11-19T06:06:39.649Z,24.73
2022-11-19T06:08:41.627Z,26.10
2022-11-19T06:10:43.843Z,24.60
2022-11-19T06:12:46.306Z,25.38
2022-11-19T06:14:48.178Z,25.85
2022-11-19T06:16:51.844Z,25.77
2022-11-19T06:18:53.843Z,24.73
2022-11-19T06:20:55.594Z,25.92
2022-11-19T06:22:58.151Z,26.70
2022-11-19T06:24:59.933Z,26.63
2022-11-19T06:27:01.719Z,25.85
2022-11-19T06:29:03.991Z,25.63
2022-11-19T06:31:06.225Z,27.55
2022-11-19T06:33:08.026Z,26.33
2022-11-19T06:35:10.566Z,27.27
2022-11-19T06:37:12.391Z,25.88
2022-11-19T06:39:14.225Z,26.63
2022-11-19T06:41:17.050Z,19.85
2022-11-19T06:43:19.035Z,26.50
2022-11-19T06:45:20.811Z,25.48
2022-11-19T06:47:23.052Z,24.50
2022-11-19T06:49:25.141Z,24.80
2022-11-19T06:51:27.158Z,25.55
2022-11-19T06:53:29.753Z,19.73
2022-11-19T06:55:31.556Z,19.42
2022-11-19T06:57:33.348Z,25.02
2022-11-19T06:59:35.461Z,25.25
2022-11-19T07:01:37.271Z,25.77
2022-11-19T07:03:39.068Z,26.50
2022-11-19T07:05:41.614Z,27.63
2022-11-19T07:07:43.485Z,26.45
2022-11-19T07:09:45.297Z,18.73
2022-11-19T07:11:47.409Z,26.63
2022-11-19T07:13:59.759Z,26.40
2022-11-19T07:16:03.187Z,20.88
2022-11-19T07:18:05.367Z,25.70
2022-11-19T07:20:08.146Z,26.08
2022-11-19T07:22:10.215Z,26.35
2022-11-19T07:24:16.445Z,26.02
2022-11-19T07:26:18.426Z,25.65
2022-11-19T07:28:20.220Z,26.70
2022-11-19T07:30:22.333Z,21.10
2022-11-19T07:32:24.163Z,26.40
2022-11-19T07:34:25.913Z,25.45
2022-11-19T07:36:28.118Z,25.00
2022-11-19T07:38:35.683Z,26.15
2022-11-19T07:40:38.659Z,24.48
2022-11-19T07:42:49.559Z,27.67
2022-11-19T07:44:54.829Z,25.50
2022-11-19T07:46:57.162Z,25.23
2022-11-19T07:48:59.595Z,24.48
2022-11-19T07:51:01.368Z,26.35
2022-11-19T07:53:03.203Z,25.27
2022-11-19T07:55:06.130Z,26.15
2022-11-19T07:57:08.099Z,25.00
2022-11-19T07:59:10.235Z,25.37
2022-11-19T08:01:17.614Z,26.17
2022-11-19T08:03:19.767Z,24.95
2022-11-19T08:05:21.547Z,26.55
2022-11-19T08:07:23.786Z,25.17
2022-11-19T08:09:25.562Z,24.75
2022-11-19T08:11:27.500Z,24.90
2022-11-19T08:13:29.624Z,18.63
2022-11-19T08:15:33.284Z,24.15
2022-11-19T08:17:53.896Z,24.10
2022-11-19T08:19:56.048Z,23.17
2022-11-19T08:21:57.906Z,23.27
2022-11-19T08:23:59.716Z,23.35
2022-11-19T08:26:02.089Z,23.17
2022-11-19T08:28:05.142Z,22.57
2022-11-19T08:30:07.607Z,22.73
2022-11-19T08:32:09.788Z,22.48
2022-11-19T08:34:12.068Z,20.75
2022-11-19T08:36:14.231Z,21.52
2022-11-19T08:38:16.045Z,20.30
2022-11-19T08:40:19.069Z,21.33
2022-11-19T08:42:39.331Z,20.15
2022-11-19T08:44:41.144Z,18.45
2022-11-19T08:46:43.646Z,19.75
2022-11-19T08:48:45.934Z,21.63
2022-11-19T08:50:47.757Z,21.20
2022-11-19T08:52:58.279Z,21.60
2022-11-19T08:55:00.025Z,20.45
2022-11-19T08:57:02.091Z,21.15
2022-11-19T08:59:04.236Z,21.48
2022-11-19T09:01:14.036Z,20.95
2022-11-19T09:03:16.186Z,19.17
2022-11-19T09:05:18.338Z,20.33
2022-11-19T09:07:20.218Z,19.92
2022-11-19T09:09:22.028Z,19.40
2022-11-19T09:11:24.354Z,15.65
2022-11-19T09:13:26.273Z,19.75
2022-11-19T09:15:28.323Z,23.30
2022-11-19T09:17:31.335Z,21.98
2022-11-19T09:19:33.114Z,20.80
2022-11-19T09:21:34.869Z,19.08
2022-11-19T09:23:37.486Z,20.17
2022-11-19T09:25:39.264Z,20.55
2022-11-19T09:27:41.113Z,20.17
2022-11-19T09:29:43.270Z,20.45
2022-11-19T09:31:45.024Z,19.67
2022-11-19T09:33:49.793Z,20.73
2022-11-19T09:35:51.934Z,19.58
2022-11-19T09:37:53.673Z,20.77
2022-11-19T09:39:55.450Z,20.80
2022-11-19T09:42:20.030Z,19.73
2022-11-19T09:44:32.081Z,18.23
2022-11-19T09:46:33.825Z,18.85
2022-11-19T09:48:38.264Z,19.08
2022-11-19T09:51:00.273Z,17.98
2022-11-19T09:53:09.400Z,17.50
2022-11-19T09:55:29.512Z,17.10
2022-11-19T09:57:46.930Z,17.58
2022-11-19T09:59:51.957Z,15.68
2022-11-19T10:01:54.995Z,16.30
2022-11-19T10:03:56.780Z,19.70
2022-11-19T10:06:07.774Z,16.40
2022-11-19T10:08:49.289Z,16.77
2022-11-19T10:11:17.339Z,15.77
2022-11-19T10:13:28.484Z,16.73
2022-11-19T10:15:38.149Z,16.13
2022-11-19T10:18:05.901Z,17.02
2022-11-19T10:20:33.015Z,16.50
2022-11-19T10:22:43.017Z,17.48
2022-11-19T10:24:55.380Z,17.98
2022-11-19T10:27:04.351Z,16.10
2022-11-19T10:29:20.058Z,16.25
2022-11-19T10:33:29.704Z,14.90
2022-11-19T10:35:47.918Z,14.05
2022-11-19T10:37:59.700Z,12.23
2022-11-19T10:40:22.127Z,11.07
2022-11-19T10:42:38.608Z,13.07
2022-11-19T10:44:46.599Z,13.52
2022-11-19T10:46:49.533Z,13.80
2022-11-19T10:48:57.957Z,14.55
2022-11-19T10:51:00.390Z,14.95
2022-11-19T10:53:27.255Z,19.80
2022-11-19T10:55:35.877Z,14.05
2022-11-19T10:57:37.755Z,14.15
2022-11-19T10:59:41.070Z,14.10
2022-11-19T11:01:45.695Z,14.90
2022-11-19T11:04:00.924Z,14.63
2022-11-19T11:06:06.564Z,14.70
2022-11-19T11:08:11.870Z,13.63
2022-11-19T11:10:27.600Z,15.07
2022-11-19T11:12:47.937Z,15.20
2022-11-19T11:14:53.119Z,13.77
2022-11-19T11:16:55.079Z,14.40
2022-11-19T11:18:58.317Z,16.10
2022-11-19T11:21:00.814Z,16.23
2022-11-19T11:23:12.326Z,17.30
2022-11-19T11:25:27.019Z,18.60
2022-11-19T11:27:33.618Z,17.75
2022-11-19T11:29:35.426Z,18.38
2022-11-19T11:31:38.706Z,19.00
2022-11-19T11:33:55.879Z,33.80
2022-11-19T11:36:02.099Z,17.52
2022-11-19T11:38:05.213Z,15.93
2022-11-19T11:40:18.462Z,14.93
2022-11-19T11:42:20.999Z,12.98
2022-11-19T11:44:25.811Z,11.75
2022-11-19T11:46:55.834Z,12.25
2022-11-19T11:49:04.712Z,15.60
2022-11-19T11:51:32.394Z,12.00
2022-11-19T11:53:34.694Z,16.02
2022-11-19T11:55:38.574Z,13.57
2022-11-19T11:57:57.401Z,12.95
2022-11-19T12:00:01.067Z,14.23
2022-11-19T12:02:05.748Z,14.30
2022-11-19T12:04:12.926Z,15.20
2022-11-19T12:06:20.180Z,13.82
2022-11-19T12:08:37.319Z,14.02
2022-11-19T12:10:50.185Z,14.00
2022-11-19T12:15:21.400Z,13.23
2022-11-19T12:17:26.266Z,14.45
2022-11-19T12:19:44.646Z,15.02
2022-11-19T12:22:01.962Z,13.88
2022-11-19T12:24:27.368Z,13.73
2022-11-19T12:26:50.631Z,12.95
2022-11-19T12:29:16.009Z,13.80
2022-11-19T12:31:40.111Z,13.48
2022-11-19T12:33:50.843Z,13.02
2022-11-19T12:36:14.250Z,13.05
2022-11-19T12:38:49.617Z,13.80
2022-11-19T12:41:12.150Z,14.00
2022-11-19T12:43:20.348Z,15.07
2022-11-19T12:45:36.344Z,14.25
2022-11-19T12:47:59.674Z,14.27
2022-11-19T12:50:18.403Z,14.05
2022-11-19T12:52:46.323Z,14.50
2022-11-19T12:55:21.867Z,14.55
2022-11-19T12:57:56.593Z,15.05
2022-11-19T13:00:22.011Z,14.57
2022-11-19T13:02:33.405Z,15.02
2022-11-19T13:04:42.003Z,15.82
2022-11-19T13:06:53.644Z,14.88
2022-11-19T13:09:00.658Z,16.08
2022-11-19T13:11:20.227Z,15.35
2022-11-19T13:13:28.119Z,16.85
2022-11-19T13:15:55.568Z,26.35
2022-11-19T13:18:01.730Z,18.13
2022-11-19T13:20:24.817Z,22.83
2022-11-19T13:22:32.758Z,19.88
2022-11-19T13:24:50.125Z,14.93
2022-11-19T13:26:52.410Z,14.07
2022-11-19T13:29:06.858Z,10.55
2022-11-19T13:31:28.832Z,13.82
2022-11-19T13:33:52.498Z,13.40
2022-11-19T13:36:06.070Z,12.88
2022-11-19T13:40:29.672Z,13.45
2022-11-19T13:43:04.178Z,14.23
2022-11-19T13:45:16.317Z,14.05
2022-11-19T13:47:26.950Z,13.00
2022-11-19T13:49:38.736Z,14.60
2022-11-19T13:51:45.630Z,13.57
2022-11-19T13:53:48.281Z,13.45
2022-11-19T13:55:56.540Z,14.45
2022-11-19T13:58:08.303Z,13.50
2022-11-19T14:00:25.658Z,13.80
2022-11-19T14:02:55.195Z,14.30
2022-11-19T14:05:10.983Z,13.75
2022-11-19T14:07:31.014Z,13.63
2022-11-19T14:09:55.421Z,14.18
2022-11-19T14:12:31.972Z,12.93
2022-11-19T14:15:16.444Z,14.02
2022-11-19T14:20:17.862Z,14.75
2022-11-19T14:23:00.265Z,13.68
2022-11-19T14:25:21.029Z,13.63
2022-11-19T14:27:23.839Z,13.80
2022-11-19T14:29:25.588Z,13.68
2022-11-19T14:31:27.732Z,14.98
2022-11-19T14:33:47.804Z,14.05
2022-11-19T14:35:51.364Z,13.88
2022-11-19T14:37:56.785Z,17.48
2022-11-19T14:40:07.630Z,17.10
2022-11-19T14:42:18.723Z,14.65
2022-11-19T14:44:26.650Z,14.18
2022-11-19T14:46:28.802Z,15.70
2022-11-19T14:48:34.027Z,17.13
2022-11-19T14:50:36.336Z,15.90
2022-11-19T14:52:51.162Z,14.70
2022-11-19T14:55:03.816Z,14.02
2022-11-19T14:57:25.575Z,13.85
2022-11-19T14:59:31.311Z,13.85
2022-11-19T15:01:33.899Z,14.95
2022-11-19T15:05:42.327Z,13.35
2022-11-19T15:07:56.248Z,13.25
2022-11-19T15:10:05.004Z,15.10
2022-11-19T15:12:06.804Z,15.55
2022-11-19T15:14:39.661Z,15.13
2022-11-19T15:16:48.562Z,14.82
2022-11-19T15:19:02.267Z,14.73
2022-11-19T15:21:32.455Z,14.20
2022-11-19T15:24:05.063Z,14.48
2022-11-19T15:26:22.025Z,15.25
2022-11-19T15:28:46.028Z,13.60
2022-11-19T15:31:14.797Z,17.75
2022-11-19T15:33:35.449Z,16.23
2022-11-19T15:36:11.361Z,15.40
2022-11-19T15:38:18.700Z,13.95
2022-11-19T15:40:30.714Z,16.60
2022-11-19T15:42:46.303Z,14.38
2022-11-19T15:44:59.111Z,15.05
2022-11-19T15:47:05.423Z,15.40
2022-11-19T15:49:14.280Z,17.33
2022-11-19T15:51:19.314Z,17.48
2022-11-19T15:53:23.230Z,16.92
2022-11-19T15:55:28.760Z,16.08
2022-11-19T15:57:31.158Z,17.73
2022-11-19T15:59:36.233Z,16.65
2022-11-19T16:01:38.252Z,18.23
2022-11-19T16:03:41.224Z,18.48
2022-11-19T16:05:50.243Z,18.08
2022-11-19T16:07:53.351Z,20.20
2022-11-19T16:09:56.130Z,20.98
2022-11-19T16:12:16.727Z,27.90
2022-11-19T16:14:45.140Z,32.08
2022-11-19T16:17:10.647Z,32.28
2022-11-19T16:19:17.140Z,26.33
2022-11-19T16:21:27.346Z,21.83
2022-11-19T16:23:30.418Z,17.95
2022-11-19T16:25:37.138Z,20.38
2022-11-19T16:27:45.112Z,19.58
2022-11-19T16:29:47.345Z,19.35
2022-11-19T16:31:50.462Z,14.57
2022-11-19T16:33:55.397Z,19.90
2022-11-19T16:36:18.577Z,19.13
2022-11-19T16:38:28.078Z,22.05
2022-11-19T16:40:52.747Z,21.58
2022-11-19T16:42:59.286Z,19.48
2022-11-19T16:45:28.681Z,19.58
2022-11-19T16:47:36.430Z,17.65
2022-11-19T16:49:55.777Z,22.35
2022-11-19T16:51:58.393Z,17.95
2022-11-19T16:54:01.829Z,18.08
2022-11-19T16:56:10.792Z,20.13
2022-11-19T16:58:18.462Z,20.40
2022-11-19T17:00:23.744Z,17.58
2022-11-19T17:02:35.797Z,18.08
2022-11-19T17:04:37.762Z,18.90
2022-11-19T17:06:42.840Z,18.73
2022-11-19T17:08:55.839Z,20.98
2022-11-19T17:11:40.790Z,19.70
2022-11-19T17:13:42.934Z,18.52
2022-11-19T17:15:48.691Z,18.88
2022-11-19T17:17:51.746Z,19.45
2022-11-19T17:19:54.081Z,21.98
2022-11-19T17:22:01.645Z,18.73
2022-11-19T17:24:03.645Z,19.35
2022-11-19T17:26:08.050Z,23.80
2022-11-19T17:28:20.104Z,23.42
2022-11-19T17:30:25.918Z,23.58
2022-11-19T17:32:43.937Z,19.80
2022-11-19T17:34:49.325Z,21.13
2022-11-19T17:36:51.096Z,20.23
2022-11-19T17:38:54.062Z,21.13
2022-11-19T17:40:58.840Z,21.65
2022-11-19T17:43:19.306Z,21.00
2022-11-19T17:45:21.411Z,23.25
2022-11-19T17:47:24.235Z,21.92
2022-11-19T17:49:26.270Z,20.65
2022-11-19T17:51:28.410Z,20.63
2022-11-19T17:53:30.356Z,21.40
2022-11-19T17:55:32.185Z,21.57
2022-11-19T17:57:41.153Z,21.65
2022-11-19T17:59:44.339Z,23.05
2022-11-19T18:01:46.174Z,16.88
2022-11-19T18:03:48.676Z,20.40
2022-11-19T18:05:50.995Z,20.27
2022-11-19T18:07:53.487Z,20.17
2022-11-19T18:09:55.589Z,20.05
2022-11-19T18:11:57.646Z,19.27
2022-11-19T18:14:09.890Z,20.83
2022-11-19T18:16:15.034Z,19.88
2022-11-19T18:18:16.998Z,19.42
2022-11-19T18:20:18.835Z,17.40
2022-11-19T18:22:21.230Z,18.75
2022-11-19T18:24:23.500Z,20.57
2022-11-19T18:26:25.331Z,15.82
2022-11-19T18:28:27.441Z,20.15
2022-11-19T18:30:29.262Z,19.90
2022-11-19T18:32:31.125Z,18.83
2022-11-19T18:34:33.351Z,14.80
2022-11-19T18:36:35.322Z,18.65
2022-11-19T18:38:37.106Z,19.07
2022-11-19T18:40:39.304Z,19.98
2022-11-19T18:43:04.267Z,19.10
2022-11-19T18:45:06.731Z,18.75
2022-11-19T18:51:14.154Z,19.05
2022-11-19T18:53:16.572Z,18.92
2022-11-19T18:55:18.545Z,20.70
2022-11-19T18:57:20.358Z,20.10
2022-11-19T18:59:23.127Z,15.75
2022-11-19T19:01:25.380Z,20.52
2022-11-19T19:03:27.214Z,20.33
2022-11-19T19:05:29.384Z,20.92
2022-11-19T19:07:31.938Z,21.30
2022-11-19T19:09:33.731Z,22.15
2022-11-19T19:11:54.672Z,22.25
2022-11-19T19:13:56.559Z,21.38
2022-11-19T19:16:01.003Z,21.63
2022-11-19T19:18:07.611Z,22.70
2022-11-19T19:20:10.620Z,20.98
2022-11-19T19:22:12.417Z,24.10
2022-11-19T19:24:14.641Z,24.15
2022-11-19T19:26:18.175Z,21.95
2022-11-19T19:28:20.026Z,21.48
2022-11-19T19:30:22.232Z,21.17
2022-11-19T19:32:24.366Z,21.00
2022-11-19T19:34:26.462Z,18.15
2022-11-19T19:36:28.731Z,20.80
2022-11-19T19:38:30.818Z,21.38
2022-11-19T19:40:32.603Z,21.35
2022-11-19T19:42:39.854Z,21.15
2022-11-19T19:44:43.142Z,19.92
2022-11-19T19:46:47.982Z,21.67
2022-11-19T19:48:52.521Z,21.75
2022-11-19T19:50:54.494Z,20.95
2022-11-19T19:52:59.606Z,21.98
2022-11-19T19:55:02.137Z,20.15
2022-11-19T19:57:04.125Z,20.63
2022-11-19T19:59:06.041Z,21.20
2022-11-19T20:01:17.720Z,16.48
2022-11-19T20:03:20.263Z,20.83
2022-11-19T20:05:22.054Z,20.08
2022-11-19T20:07:24.275Z,22.85
2022-11-19T20:09:26.506Z,20.48
2022-11-19T20:11:29.284Z,21.77
2022-11-19T20:13:32.263Z,22.27
2022-11-19T20:15:34.687Z,20.58
2022-11-19T20:17:36.576Z,21.77
2022-11-19T20:19:38.758Z,21.08
2022-11-19T20:21:41.198Z,21.73
2022-11-19T20:23:43.454Z,21.70
2022-11-19T20:25:45.744Z,21.67
2022-11-19T20:27:47.587Z,19.70
2022-11-19T20:29:49.616Z,20.97
2022-11-19T20:31:51.831Z,21.63
2022-11-19T20:33:57.391Z,22.25
2022-11-19T20:35:59.331Z,20.13
2022-11-19T20:38:03.660Z,15.00
2022-11-19T20:40:06.351Z,20.58
2022-11-19T20:42:26.950Z,22.10
2022-11-19T20:44:29.384Z,21.85
2022-11-19T20:46:31.516Z,20.97
2022-11-19T20:48:33.382Z,21.58
2022-11-19T20:50:35.630Z,22.90
2022-11-19T20:52:37.491Z,22.95
2022-11-19T20:54:39.374Z,23.20
2022-11-19T20:56:42.337Z,22.92
2022-11-19T20:58:44.212Z,23.02
2022-11-19T21:00:45.994Z,16.83
2022-11-19T21:02:48.118Z,24.50
2022-11-19T21:04:50.141Z,25.90
2022-11-19T21:06:53.861Z,26.92
2022-11-19T21:08:56.522Z,25.85
2022-11-19T21:11:00.673Z,25.88
2022-11-19T21:13:03.910Z,27.38
2022-11-19T21:15:06.774Z,27.45
2022-11-19T21:17:08.632Z,27.60
2022-11-19T21:19:11.250Z,27.55
2022-11-19T21:21:15.257Z,28.83
2022-11-19T21:23:17.706Z,26.90
2022-11-19T21:25:19.501Z,28.17
2022-11-19T21:27:21.682Z,28.35
2022-11-19T21:29:23.744Z,28.10
2022-11-19T21:31:41.519Z,26.98
2022-11-19T21:33:43.790Z,28.70
2022-11-19T21:35:45.621Z,28.57
2022-11-19T21:37:47.471Z,27.70
2022-11-19T21:39:49.832Z,28.33
2022-11-19T21:41:51.668Z,30.00
2022-11-19T21:43:53.461Z,36.80
2022-11-19T21:45:55.721Z,29.70
2022-11-19T21:47:57.516Z,23.90
2022-11-19T21:50:00.814Z,29.73
2022-11-19T21:52:03.206Z,30.20
2022-11-19T21:54:05.119Z,31.53
2022-11-19T21:56:07.663Z,30.67
2022-11-19T21:58:12.376Z,29.42
2022-11-19T22:00:14.603Z,29.77
2022-11-19T22:02:16.390Z,30.23
2022-11-19T22:04:18.843Z,27.77
2022-11-19T22:06:20.617Z,28.90
2022-11-19T22:08:22.451Z,29.20
2022-11-19T22:10:24.599Z,23.73
2022-11-19T22:12:26.566Z,27.30
2022-11-19T22:14:28.445Z,27.73
2022-11-19T22:16:32.630Z,29.13
2022-11-19T22:18:34.424Z,29.60
2022-11-19T22:20:36.725Z,23.57
2022-11-19T22:22:45.038Z,28.00
2022-11-19T22:24:46.991Z,27.52
2022-11-19T22:26:48.840Z,26.57
2022-11-19T22:28:51.322Z,28.10
2022-11-19T22:30:54.110Z,28.65
2022-11-19T22:32:55.905Z,27.17
2022-11-19T22:34:58.294Z,27.45
2022-11-19T22:37:05.835Z,28.15
2022-11-19T22:39:07.823Z,27.70
2022-11-19T22:41:12.887Z,27.80
2022-11-19T22:43:16.997Z,28.58
2022-11-19T22:45:20.830Z,28.45
2022-11-19T22:47:23.190Z,28.45
2022-11-19T22:49:26.534Z,28.57
2022-11-19T22:51:28.340Z,29.05
2022-11-19T22:53:30.486Z,29.10
2022-11-19T22:55:34.799Z,29.00
2022-11-19T22:57:36.598Z,30.20
2022-11-19T22:59:38.777Z,30.17
2022-11-19T23:01:40.577Z,30.33
2022-11-19T23:03:42.525Z,31.10
2022-11-19T23:05:52.643Z,31.10
2022-11-19T23:07:54.593Z,31.30
2022-11-19T23:09:56.708Z,29.88
2022-11-19T23:12:16.858Z,30.65
2022-11-19T23:14:19.443Z,29.50
2022-11-19T23:16:21.224Z,31.70
2022-11-19T23:18:23.032Z,29.95
2022-11-19T23:20:25.180Z,30.88
2022-11-19T23:22:26.955Z,31.38
2022-11-19T23:24:28.753Z,30.10
2022-11-19T23:26:32.506Z,31.50
2022-11-19T23:28:36.003Z,30.85
2022-11-19T23:30:37.789Z,33.35
2022-11-19T23:32:41.077Z,30.55
2022-11-19T23:36:44.553Z,30.10
2022-11-19T23:38:46.958Z,31.65
2022-11-19T23:40:57.452Z,31.05
2022-11-19T23:42:59.283Z,31.77
2022-11-19T23:45:01.548Z,31.17
2022-11-19T23:47:04.546Z,30.52
2022-11-19T23:49:06.455Z,30.67
2022-11-19T23:51:16.779Z,30.83
2022-11-19T23:53:18.588Z,31.95
2022-11-19T23:55:20.422Z,31.00
2022-11-19T23:57:22.590Z,32.38
2022-11-19T23:59:25.877Z,31.65
